Time;durP1;ratioP1;P1;durP2;ratioP2;P2;SDS_P1;SDS_P2;PMS_P1;PMS_P2;Temp;Humidity;BMP_temperature;BMP_pressure;BME280_temperature;BME280_humidity;BME280_pressure;Samples;Min_cycle;Max_cycle;Signal;HPM_P1;HPM_P2
2023/02/05 00:05:04;;;;;;;12.40;6.38;;;25.60;2201.60;;;;;;4975861;26;20032;-83
2023/02/05 00:23:05;;;;;;;17.08;8.13;;;25.60;2201.60;;;;;;4987313;28;20067;-86
2023/02/05 00:25:31;;;;;;;10.70;5.18;;;25.70;2201.60;;;;;;4969672;28;20458;-80
2023/02/05 00:27:57;;;;;;;8.93;4.45;;;25.70;2201.60;;;;;;4968273;28;20023;-80
2023/02/05 00:32:58;;;;;;;19.85;10.32;;;25.70;2201.60;;;;;;4979817;23;20035;-82
2023/02/05 00:35:25;;;;;;;14.75;7.00;;;25.60;2201.60;;;;;;4964759;29;20035;-83
2023/02/05 00:37:55;;;;;;;9.68;5.03;;;51.20;2227.20;;;;;;4981065;29;20115;-83
2023/02/05 00:40:24;;;;;;;20.65;11.23;;;25.60;2201.60;;;;;;4965193;29;20047;-83
2023/02/05 00:45:30;;;;;;;16.17;9.50;;;0.90;2201.60;;;;;;4980686;28;20069;-83
2023/02/05 00:47:58;;;;;;;26.98;13.68;;;25.60;2201.60;;;;;;4949971;29;20042;-82
2023/02/05 00:50:26;;;;;;;40.42;22.27;;;25.70;2201.60;;;;;;4949679;28;20083;-83
2023/02/05 00:52:55;;;;;;;12.60;8.18;;;25.60;2201.60;;;;;;4949420;28;20059;-83
2023/02/05 00:55:24;;;;;;;12.95;6.50;;;25.60;2201.60;;;;;;4981606;28;20035;-83
2023/02/05 00:57:55;;;;;;;12.40;6.93;;;25.60;2201.60;;;;;;4965814;28;20011;-83
2023/02/05 01:00:37;;;;;;;10.88;7.43;;;0.90;2201.60;;;;;;4982137;28;20096;-83
2023/02/05 01:03:06;;;;;;;12.00;6.55;;;0.90;2201.60;;;;;;4963355;29;20054;-82
2023/02/05 01:05:56;;;;;;;9.93;6.38;;;0.80;2201.60;;;;;;4962590;29;20031;-82
2023/02/05 01:08:49;;;;;;;6.75;4.00;;;0.80;2201.60;;;;;;4980319;28;20014;-83
2023/02/05 01:11:29;;;;;;;5.35;2.95;;;0.70;2201.60;;;;;;4982214;28;20016;-84
2023/02/05 01:14:09;;;;;;;12.60;6.60;;;0.70;2201.60;;;;;;5000483;23;20047;-83
2023/02/05 01:16:40;;;;;;;8.50;4.32;;;0.70;2201.60;;;;;;5000156;28;20031;-84
2023/02/05 01:19:33;;;;;;;14.43;6.20;;;0.80;2201.60;;;;;;4968396;28;20019;-85
2023/02/05 01:22:19;;;;;;;10.10;5.10;;;0.80;2201.60;;;;;;5001358;28;20075;-83
2023/02/05 01:25:14;;;;;;;15.27;6.15;;;0.70;2201.60;;;;;;4983650;28;20029;-82
2023/02/05 01:27:42;;;;;;;10.30;5.53;;;0.70;2201.60;;;;;;4968180;28;20050;-83
2023/02/05 01:30:17;;;;;;;13.85;6.65;;;0.70;2201.60;;;;;;5000915;28;20023;-83
2023/02/05 01:32:48;;;;;;;9.75;5.43;;;0.70;2201.60;;;;;;4982167;28;20011;-83
2023/02/05 01:35:39;;;;;;;7.40;4.50;;;0.70;2201.60;;;;;;4967939;28;20103;-83
2023/02/05 01:38:22;;;;;;;9.10;4.38;;;0.60;2201.60;;;;;;4997585;28;20055;-83
2023/02/05 01:40:54;;;;;;;11.05;5.13;;;0.60;2201.60;;;;;;4994082;28;20019;-84
2023/02/05 01:43:59;;;;;;;7.78;3.83;;;0.70;2201.60;;;;;;4963300;28;20062;-82
2023/02/05 01:47:19;;;;;;;10.77;4.82;;;0.70;2201.60;;;;;;5000126;28;20011;-84
2023/02/05 01:50:15;;;;;;;9.95;5.32;;;0.60;2201.60;;;;;;4961675;28;20038;-84
2023/02/05 02:08:50;;;;;;;7.65;3.60;;;0.30;2201.60;;;;;;4998791;28;20049;-85
2023/02/05 02:11:35;;;;;;;7.57;3.80;;;0.40;2201.60;;;;;;4983078;28;20038;-84
2023/02/05 02:14:25;;;;;;;6.03;3.75;;;0.40;2201.60;;;;;;4983851;28;20033;-84
2023/02/05 02:21:01;;;;;;;7.43;3.70;;;0.40;2201.60;;;;;;4959620;28;20062;-84
2023/02/05 02:24:32;;;;;;;8.30;4.03;;;0.20;2201.60;;;;;;4960639;28;20076;-85
2023/02/05 02:27:56;;;;;;;5.57;3.33;;;0.30;2201.60;;;;;;4959860;28;20031;-83
2023/02/05 02:31:11;;;;;;;11.70;4.72;;;0.20;2201.60;;;;;;4958480;28;20039;-84
2023/02/05 02:34:36;;;;;;;9.02;5.15;;;0.10;2201.60;;;;;;4960273;28;20084;-83
2023/02/05 02:37:34;;;;;;;7.03;3.28;;;0.10;2201.60;;;;;;4952008;29;20051;-81
2023/02/05 02:40:59;;;;;;;11.18;5.00;;;0.10;2201.60;;;;;;4938379;28;20040;-85
2023/02/05 02:44:29;;;;;;;7.47;3.53;;;0.20;2201.60;;;;;;4938996;28;20030;-84
2023/02/05 02:47:54;;;;;;;7.10;4.63;;;0.10;2201.60;;;;;;4960133;28;20043;-85
2023/02/05 02:50:57;;;;;;;13.35;6.13;;;0.00;2201.60;;;;;;4959925;28;20119;-84
2023/02/05 02:56:51;;;;;;;7.60;3.13;;;0.00;2201.60;;;;;;4960869;28;20035;-83
2023/02/05 02:59:44;;;;;;;7.65;4.20;;;12.90;2201.60;;;;;;4958854;28;20028;-84
2023/02/05 03:02:25;;;;;;;7.70;3.67;;;0.00;2201.60;;;;;;4943743;29;20020;-82
2023/02/05 03:05:27;;;;;;;5.82;3.17;;;12.90;2201.60;;;;;;4957890;28;20031;-83
2023/02/05 03:08:30;;;;;;;11.43;4.90;;;12.90;2201.60;;;;;;4959112;28;20035;-84
2023/02/05 03:11:34;;;;;;;6.70;3.65;;;12.90;2201.60;;;;;;4956786;29;20020;-82
2023/02/05 03:14:07;;;;;;;8.82;4.30;;;13.00;2201.60;;;;;;4959169;29;20028;-83
2023/02/05 03:16:41;;;;;;;9.13;4.65;;;12.90;2201.60;;;;;;4958640;28;20028;-83
2023/02/05 03:19:11;;;;;;;9.32;5.35;;;0.10;2201.60;;;;;;4958234;29;20054;-83
2023/02/05 03:22:01;;;;;;;7.75;3.67;;;0.00;2201.60;;;;;;4943961;29;20058;-83
2023/02/05 03:24:31;;;;;;;5.40;3.28;;;0.00;2201.60;;;;;;4927411;29;20054;-83
2023/02/05 03:26:59;;;;;;;6.50;3.00;;;0.10;2201.60;;;;;;4959307;29;20012;-83
2023/02/05 03:29:30;;;;;;;6.85;3.75;;;51.40;2227.20;;;;;;4957654;29;20043;-83
2023/02/05 03:32:25;;;;;;;7.38;4.07;;;0.10;2201.60;;;;;;4941606;29;20029;-83
2023/02/05 03:35:22;;;;;;;8.98;5.05;;;0.10;2201.60;;;;;;4957241;29;20035;-82
2023/02/05 03:38:20;;;;;;;7.82;4.25;;;0.00;2201.60;;;;;;4958836;29;20028;-83
2023/02/05 03:41:19;;;;;;;13.68;7.00;;;13.00;2201.60;;;;;;4959193;29;20035;-82
2023/02/05 03:44:19;;;;;;;6.80;3.97;;;12.90;2201.60;;;;;;4957064;29;20024;-82
2023/02/05 03:47:12;;;;;;;6.38;2.95;;;0.00;2201.60;;;;;;4946144;29;20120;-82
2023/02/05 03:49:59;;;;;;;4.93;2.72;;;12.90;2201.60;;;;;;4961837;28;20047;-83
2023/02/05 03:52:38;;;;;;;6.85;2.92;;;13.00;2201.60;;;;;;4961712;28;20023;-81
2023/02/05 03:55:34;;;;;;;8.50;4.75;;;12.90;2201.60;;;;;;4941845;29;20027;-82
2023/02/05 03:58:19;;;;;;;5.63;3.55;;;13.00;2201.60;;;;;;4942187;29;20502;-82
2023/02/05 04:00:46;;;;;;;8.32;4.47;;;13.00;2201.60;;;;;;4960225;28;20016;-83
2023/02/05 04:03:49;;;;;;;14.45;5.90;;;13.10;2201.60;;;;;;4931247;29;20056;-82
2023/02/05 04:06:27;;;;;;;6.00;3.42;;;13.00;2201.60;;;;;;4963796;28;20079;-83
2023/02/05 04:09:17;;;;;;;6.90;3.33;;;12.90;2201.60;;;;;;4963606;28;20008;-84
2023/02/05 04:11:45;;;;;;;5.68;3.35;;;12.90;2201.60;;;;;;4990038;23;20047;-83
2023/02/05 04:14:18;;;;;;;5.47;3.15;;;13.00;2201.60;;;;;;4996647;28;20019;-83
2023/02/05 04:17:16;;;;;;;8.20;4.32;;;13.00;2201.60;;;;;;4984313;28;20043;-84
2023/02/05 04:19:47;;;;;;;4.30;2.53;;;13.00;2201.60;;;;;;4996467;28;20031;-83
2023/02/05 04:22:24;;;;;;;6.10;3.40;;;13.00;2201.60;;;;;;4982846;28;20058;-83
2023/02/05 04:24:57;;;;;;;14.98;4.95;;;12.90;2201.60;;;;;;4981464;28;20047;-85
2023/02/05 04:27:28;;;;;;;10.65;5.60;;;13.10;2201.60;;;;;;4978540;28;20022;-84
2023/02/05 04:29:56;;;;;;;7.07;3.78;;;13.10;2201.60;;;;;;4982263;28;20015;-83
2023/02/05 04:32:27;;;;;;;5.53;3.35;;;13.10;2201.60;;;;;;4982103;28;20046;-83
2023/02/05 04:35:00;;;;;;;10.52;4.18;;;13.10;2201.60;;;;;;4981241;28;20066;-85
2023/02/05 04:37:29;;;;;;;;;;;13.10;2201.60;;;;;;4982023;28;20031;-84
2023/02/05 04:45:48;;;;;;;7.60;3.60;;;13.20;2201.60;;;;;;4980548;28;20031;-83
2023/02/05 04:48:20;;;;;;;11.13;5.38;;;13.10;2201.60;;;;;;4979779;28;20062;-83
2023/02/05 04:50:50;;;;;;;10.32;5.78;;;13.10;2201.60;;;;;;4965819;28;20078;-83
2023/02/05 05:07:04;;;;;;;12.27;5.28;;;13.10;2201.60;;;;;;4980017;28;20040;-84
2023/02/05 05:09:36;;;;;;;12.63;5.38;;;13.10;2201.60;;;;;;4964761;28;20059;-84
2023/02/05 05:12:11;;;;;;;19.25;7.60;;;13.10;2201.60;;;;;;4966332;28;20082;-85
2023/02/05 05:20:41;;;;;;;8.98;5.25;;;13.20;2201.60;;;;;;5001343;28;20053;-85
2023/02/05 05:23:21;;;;;;;10.45;6.38;;;13.10;2201.60;;;;;;5011515;23;20061;-82
2023/02/05 05:25:55;;;;;;;13.85;5.63;;;13.20;2201.60;;;;;;5000445;28;20025;-83
2023/02/05 05:28:22;;;;;;;14.63;8.30;;;13.30;2201.60;;;;;;4999887;28;20066;-85
2023/02/05 05:30:50;;;;;;;13.95;9.32;;;13.30;2201.60;;;;;;5000505;28;20089;-85
2023/02/05 05:33:23;;;;;;;21.30;11.95;;;13.30;2201.60;;;;;;4984631;28;20010;-83
2023/02/05 05:35:50;;;;;;;10.95;6.30;;;13.20;2201.60;;;;;;5000300;28;20074;-84
2023/02/05 05:38:24;;;;;;;18.15;9.48;;;13.20;2201.60;;;;;;4984169;28;20026;-86
2023/02/05 05:43:48;;;;;;;8.48;4.38;;;13.20;2201.60;;;;;;5000021;28;20092;-84
2023/02/05 05:46:28;;;;;;;8.05;4.53;;;13.30;2201.60;;;;;;4999334;28;20023;-83
2023/02/05 05:49:05;;;;;;;8.43;4.50;;;13.40;2201.60;;;;;;5000037;28;20050;-83
2023/02/05 05:51:32;;;;;;;14.60;8.57;;;13.40;2201.60;;;;;;4999748;28;20022;-84
2023/02/05 05:54:01;;;;;;;13.50;7.00;;;13.30;2201.60;;;;;;4983810;28;20057;-84
2023/02/05 05:56:31;;;;;;;15.27;7.47;;;13.20;2201.60;;;;;;4984352;28;20030;-83
2023/02/05 05:59:01;;;;;;;20.08;9.63;;;13.10;2201.60;;;;;;5000489;28;20022;-82
2023/02/05 06:01:31;;;;;;;20.63;9.70;;;13.20;2201.60;;;;;;4983693;28;20039;-84
2023/02/05 06:03:59;;;;;;;11.85;5.35;;;13.10;2201.60;;;;;;4999757;28;20074;-84
2023/02/05 06:06:26;;;;;;;8.20;3.80;;;13.20;2201.60;;;;;;5000120;28;20025;-84
2023/02/05 06:08:58;;;;;;;6.65;4.15;;;13.20;2201.60;;;;;;4999298;28;20031;-84
2023/02/05 06:11:25;;;;;;;7.77;4.43;;;13.30;2201.60;;;;;;4983661;28;20030;-84
2023/02/05 06:13:54;;;;;;;14.18;6.80;;;13.30;2201.60;;;;;;4998218;28;20288;-84
2023/02/05 06:16:42;;;;;;;10.90;4.28;;;13.30;2201.60;;;;;;4999753;28;20054;-85
2023/02/05 06:19:11;;;;;;;12.23;5.68;;;13.30;2201.60;;;;;;4996284;28;20026;-83
2023/02/05 06:21:43;;;;;;;9.73;5.45;;;13.30;2201.60;;;;;;4982491;28;20057;-85
2023/02/05 06:24:11;;;;;;;23.70;11.57;;;13.30;2201.60;;;;;;4998606;28;20054;-84
2023/02/05 06:27:02;;;;;;;6.20;3.90;;;13.40;2201.60;;;;;;4965659;28;20038;-82
2023/02/05 06:29:31;;;;;;;14.02;5.97;;;13.50;2201.60;;;;;;4983395;28;20061;-83
2023/02/05 06:32:06;;;;;;;9.18;3.97;;;13.00;2201.60;;;;;;5000184;28;20038;-85
2023/02/05 06:34:42;;;;;;;15.20;7.65;;;13.40;2201.60;;;;;;4983559;28;20043;-86
2023/02/05 06:37:12;;;;;;;17.55;8.30;;;13.40;2201.60;;;;;;4981828;28;20030;-85
2023/02/05 06:39:57;;;;;;;19.17;8.85;;;13.40;2201.60;;;;;;4981352;28;20070;-83
2023/02/05 06:42:27;;;;;;;13.80;7.57;;;13.40;2201.60;;;;;;4983220;28;20022;-85
2023/02/05 06:44:54;;;;;;;19.17;9.07;;;13.50;2201.60;;;;;;4963098;23;20042;-84
2023/02/05 06:47:29;;;;;;;18.10;11.18;;;13.40;2201.60;;;;;;5005364;23;20049;-84
2023/02/05 06:49:59;;;;;;;21.95;11.70;;;13.40;2201.60;;;;;;4982849;28;20031;-85
2023/02/05 06:58:11;;;;;;;15.93;8.05;;;13.30;2201.60;;;;;;4978792;28;20047;-85
2023/02/05 07:00:44;;;;;;;14.63;5.50;;;13.30;2201.60;;;;;;4979400;28;20031;-85
2023/02/05 07:03:13;;;;;;;60.90;31.58;;;13.30;2201.60;;;;;;4948890;28;20023;-84
2023/02/05 07:05:40;;;;;;;20.08;11.82;;;39.00;2201.60;;;;;;4958042;23;20099;-84
2023/02/05 07:08:09;;;;;;;24.55;10.95;;;13.30;2201.60;;;;;;4944539;28;20020;-84
2023/02/05 07:10:37;;;;;;;22.55;10.55;;;13.50;2201.60;;;;;;4944327;28;20072;-83
2023/02/05 07:13:07;;;;;;;11.45;6.88;;;13.10;2201.60;;;;;;4945245;28;20095;-85
2023/02/05 07:15:36;;;;;;;8.90;5.55;;;13.10;2201.60;;;;;;4928650;28;20040;-84
2023/02/05 07:18:04;;;;;;;28.50;12.50;;;13.20;2201.60;;;;;;5128894;23;20102;-84
2023/02/05 07:20:33;;;;;;;17.35;7.57;;;13.70;2201.60;;;;;;4979503;28;20039;-82
2023/02/05 07:23:01;;;;;;;22.17;10.55;;;13.20;2201.60;;;;;;4963955;28;20038;-84
2023/02/05 07:25:34;;;;;;;16.95;9.02;;;13.10;2201.60;;;;;;4968180;28;20083;-83
2023/02/05 07:28:21;;;;;;;;;;;13.70;2201.60;;;;;;4977585;28;20040;-83
2023/02/05 07:30:54;;;;;;;11.95;5.13;;;13.10;2201.60;;;;;;4979152;28;19933;-84
2023/02/05 07:33:28;;;;;;;9.03;4.70;;;13.30;2201.60;;;;;;4983251;28;20022;-84
2023/02/05 07:36:08;;;;;;;14.30;7.53;;;13.20;2201.60;;;;;;4967462;28;20308;-83
2023/02/05 07:38:36;;;;;;;25.45;13.20;;;13.30;2201.60;;;;;;4981281;28;20027;-83
2023/02/05 07:41:08;;;;;;;29.63;14.90;;;0.60;2201.60;;;;;;4981781;28;20016;-84
2023/02/05 07:43:34;;;;;;;18.73;10.57;;;13.10;2201.60;;;;;;4999004;28;20011;-82
2023/02/05 07:46:03;;;;;;;13.60;8.98;;;13.20;2201.60;;;;;;4998367;28;20257;-82
2023/02/05 07:48:32;;;;;;;26.23;13.20;;;13.20;2201.60;;;;;;4998661;28;20006;-83
2023/02/05 07:51:03;;;;;;;24.45;12.65;;;13.00;2201.60;;;;;;4981307;28;20053;-82
2023/02/05 07:53:30;;;;;;;45.55;17.83;;;13.60;2201.60;;;;;;4981751;28;20103;-82
2023/02/05 07:56:00;;;;;;;42.05;14.73;;;13.00;2201.60;;;;;;4996439;28;20031;-85
2023/02/05 07:58:28;;;;;;;34.30;15.15;;;13.00;2201.60;;;;;;4996773;28;20027;-83
2023/02/05 08:00:55;;;;;;;30.05;12.65;;;13.00;2201.60;;;;;;4988304;28;20012;-83
2023/02/05 08:03:21;;;;;;;30.20;12.90;;;0.00;2201.60;;;;;;4979188;28;20036;-83
2023/02/05 08:05:48;;;;;;;10.70;6.20;;;12.90;2201.60;;;;;;4978576;29;20047;-84
2023/02/05 08:08:23;;;;;;;20.25;10.15;;;12.90;2201.60;;;;;;4979327;28;20015;-84
2023/02/05 08:13:37;;;;;;;29.30;14.43;;;12.90;2201.60;;;;;;5136933;23;20038;-84
2023/02/05 08:16:08;;;;;;;12.35;6.68;;;0.00;2201.60;;;;;;5000451;28;20038;-83
2023/02/05 08:18:37;;;;;;;16.20;10.40;;;0.10;2201.60;;;;;;4979998;28;20046;-82
2023/02/05 08:21:06;;;;;;;26.10;13.73;;;0.20;2201.60;;;;;;4999720;28;20030;-82
2023/02/05 08:23:33;;;;;;;89.30;42.58;;;0.30;2201.60;;;;;;4972771;28;20094;-83
2023/02/05 08:26:05;;;;;;;61.05;28.13;;;0.40;2201.60;;;;;;5016947;28;20087;-83
2023/02/05 08:28:32;;;;;;;14.88;9.05;;;0.30;2201.60;;;;;;5015743;28;20026;-83
2023/02/05 08:30:58;;;;;;;47.42;19.40;;;0.50;2201.60;;;;;;4984710;28;20035;-83
2023/02/05 08:33:26;;;;;;;23.27;12.70;;;0.40;2201.60;;;;;;5017351;28;20035;-83
2023/02/05 08:35:52;;;;;;;12.90;9.52;;;0.40;2201.60;;;;;;5016863;28;20042;-83
2023/02/05 08:38:20;;;;;;;14.38;9.57;;;0.30;2201.60;;;;;;5000260;28;20058;-84
2023/02/05 08:40:49;;;;;;;5.07;3.03;;;0.40;2201.60;;;;;;5000731;28;20029;-82
2023/02/05 08:43:15;;;;;;;28.00;13.15;;;0.10;2201.60;;;;;;4999459;28;20031;-83
2023/02/05 08:45:45;;;;;;;18.90;9.18;;;0.30;2201.60;;;;;;5016911;28;20041;-83
2023/02/05 08:48:12;;;;;;;15.00;7.15;;;0.30;2201.60;;;;;;5000621;28;20018;-84
2023/02/05 08:50:39;;;;;;;23.45;9.82;;;0.30;2201.60;;;;;;4985519;28;20018;-83
2023/02/05 08:53:07;;;;;;;15.15;9.10;;;0.40;2201.60;;;;;;5001375;28;20027;-82
2023/02/05 08:56:04;;;;;;;12.52;6.38;;;0.50;2201.60;;;;;;5001194;28;20014;-84
2023/02/05 08:58:32;;;;;;;18.52;10.32;;;0.60;2201.60;;;;;;5001213;28;20018;-84
2023/02/05 09:01:03;;;;;;;29.50;12.85;;;0.70;2201.60;;;;;;5016862;28;20030;-83
2023/02/05 09:08:48;;;;;;;10.82;4.72;;;0.30;2201.60;;;;;;5311994;23;20047;-83
2023/02/05 09:11:29;;;;;;;7.32;4.60;;;0.00;2201.60;;;;;;4988308;28;20027;-83
2023/02/05 09:13:59;;;;;;;13.73;6.68;;;0.10;2201.60;;;;;;4998455;23;20049;-83
2023/02/05 09:16:25;;;;;;;28.33;13.55;;;0.30;2201.60;;;;;;4997136;23;20387;-84
2023/02/05 09:18:54;;;;;;;22.95;12.05;;;0.30;2201.60;;;;;;4981584;28;20008;-83
2023/02/05 09:21:22;;;;;;;13.63;7.45;;;0.60;2201.60;;;;;;4981247;28;20095;-83
2023/02/05 09:23:51;;;;;;;18.90;10.07;;;0.60;2201.60;;;;;;4982997;23;20055;-83
2023/02/05 09:26:17;;;;;;;16.52;8.90;;;0.60;2201.60;;;;;;4965368;28;20012;-81
2023/02/05 09:29:33;;;;;;;22.25;15.00;;;0.60;2201.60;;;;;;4964380;28;20062;-82
2023/02/05 09:32:06;;;;;;;18.58;10.52;;;0.90;2201.60;;;;;;4980948;28;20022;-81
2023/02/05 09:34:32;;;;;;;26.00;14.48;;;0.90;2201.60;;;;;;4964418;28;20027;-79
2023/02/05 09:36:58;;;;;;;49.53;27.45;;;25.60;2201.60;;;;;;4962931;29;20055;-79
2023/02/05 09:39:24;;;;;;;80.03;37.33;;;0.90;2201.60;;;;;;4957192;29;20032;-80
2023/02/05 09:42:00;;;;;;;32.63;18.48;;;25.60;2201.60;;;;;;4962475;29;20023;-81
2023/02/05 09:44:49;;;;;;;20.55;10.68;;;25.70;2201.60;;;;;;4964372;28;20043;-81
2023/02/05 09:47:40;;;;;;;7.55;4.65;;;25.70;2201.60;;;;;;4964459;28;20015;-83
2023/02/05 09:50:17;;;;;;;12.05;6.68;;;25.70;2201.60;;;;;;4962766;29;20027;-79
2023/02/05 09:52:49;;;;;;;23.17;10.38;;;25.70;2201.60;;;;;;4964349;29;20023;-81
2023/02/05 09:55:21;;;;;;;15.43;6.70;;;25.60;2201.60;;;;;;4964339;29;20066;-81
2023/02/05 09:57:49;;;;;;;11.95;6.22;;;0.80;2201.60;;;;;;4945367;29;20043;-80
2023/02/05 10:00:37;;;;;;;9.68;5.70;;;0.80;2201.60;;;;;;4957732;29;20027;-81
2023/02/05 10:03:09;;;;;;;27.70;16.13;;;0.80;2201.60;;;;;;4954377;29;20027;-80
2023/02/05 10:05:58;;;;;;;24.23;12.40;;;25.70;2201.60;;;;;;4951430;29;20031;-80
2023/02/05 10:08:42;;;;;;;15.30;8.45;;;25.80;2201.60;;;;;;4948266;29;20037;-80
2023/02/05 10:11:24;;;;;;;24.50;12.90;;;25.90;2201.60;;;;;;4948493;29;20113;-81
2023/02/05 10:14:11;;;;;;;15.30;8.33;;;26.00;2201.60;;;;;;4949473;29;20086;-81
2023/02/05 10:17:28;;;;;;;14.35;8.00;;;26.10;2201.60;;;;;;4951588;29;20108;-82
2023/02/05 10:20:14;;;;;;;13.75;9.73;;;26.10;2201.60;;;;;;4940304;29;20046;-80
2023/02/05 10:22:45;;;;;;;27.20;15.85;;;26.10;2201.60;;;;;;4946189;29;20044;-80
2023/02/05 10:25:44;;;;;;;18.17;9.75;;;26.20;2201.60;;;;;;4949654;29;20027;-80
2023/02/05 10:35:52;;;;;;;14.18;10.35;;;26.40;2201.60;;;;;;4997782;28;20038;-84
2023/02/05 10:39:07;;;;;;;15.57;9.00;;;26.40;2201.60;;;;;;4969691;28;20032;-85
2023/02/05 10:55:53;;;;;;;12.40;7.05;;;26.30;2201.60;;;;;;4980020;28;20086;-80
2023/02/05 10:59:29;;;;;;;63.70;30.10;;;26.20;2201.60;;;;;;4979203;28;20047;-82
2023/02/05 11:02:19;;;;;;;13.30;7.97;;;26.40;2201.60;;;;;;4931067;29;20035;-80
2023/02/05 11:07:52;;;;;;;10.10;5.35;;;25.90;2201.60;;;;;;5004307;23;20054;-81
2023/02/05 11:10:29;;;;;;;10.05;6.70;;;25.80;2201.60;;;;;;4963852;28;20042;-80
2023/02/05 11:13:18;;;;;;;7.28;4.55;;;26.00;2201.60;;;;;;4967229;28;20023;-82
2023/02/05 11:16:07;;;;;;;7.35;5.30;;;26.20;2201.60;;;;;;4990013;28;20031;-80
2023/02/05 11:18:40;;;;;;;20.42;11.85;;;26.40;2201.60;;;;;;4984281;28;20034;-82
2023/02/05 11:21:11;;;;;;;35.70;19.27;;;51.20;2227.20;;;;;;4997175;28;20011;-86
2023/02/05 11:24:05;;;;;;;;;;;51.20;2227.20;;;;;;5092440;23;20042;-83
2023/02/05 11:27:33;;;;;;;22.60;13.38;;;51.40;2227.20;;;;;;4992962;28;19958;-80
2023/02/05 11:30:42;;;;;;;19.23;12.23;;;51.30;2227.20;;;;;;4978547;28;20075;-83
2023/02/05 11:34:28;;;;;;;11.43;6.22;;;51.30;2227.20;;;;;;4974391;28;20055;-83
2023/02/05 11:37:17;;;;;;;28.92;15.70;;;26.40;2201.60;;;;;;4901563;29;20035;-80
2023/02/05 11:39:52;;;;;;;16.40;9.57;;;26.30;2201.60;;;;;;4976036;28;20036;-80
2023/02/05 11:42:24;;;;;;;18.35;10.73;;;26.40;2201.60;;;;;;4957613;29;20027;-82
2023/02/05 11:44:52;;;;;;;14.37;8.70;;;51.30;2227.20;;;;;;4960588;29;20027;-80
2023/02/05 11:48:17;;;;;;;9.63;5.03;;;51.20;2227.20;;;;;;4957969;28;20031;-79
2023/02/05 11:56:49;;;;;;;16.60;8.95;;;26.20;2201.60;;;;;;4997058;26;20039;-82
2023/02/05 12:18:13;;;;;;;20.95;12.05;;;26.20;2201.60;;;;;;4961697;29;20060;-84
2023/02/05 12:21:45;;;;;;;30.45;15.90;;;26.20;2201.60;;;;;;4958738;29;20020;-84
2023/02/05 12:25:40;;;;;;;25.27;11.50;;;26.00;2201.60;;;;;;5089323;23;20027;-81
2023/02/05 12:43:22;;;;;;;25.48;14.45;;;26.00;2201.60;;;;;;4997185;28;20051;-83
2023/02/05 12:46:07;;;;;;;12.80;7.40;;;25.90;2201.60;;;;;;4980641;28;20058;-84
2023/02/05 12:52:32;;;;;;;34.40;17.33;;;25.70;2201.60;;;;;;5001878;28;20022;-83
2023/02/05 12:55:24;;;;;;;23.67;13.93;;;25.60;2201.60;;;;;;4983590;28;20019;-81
2023/02/05 12:58:25;;;;;;;13.40;7.43;;;25.60;2201.60;;;;;;4984530;28;20027;-85
2023/02/05 13:01:22;;;;;;;14.85;9.00;;;25.60;2201.60;;;;;;5162922;23;20049;-84
2023/02/05 13:07:19;;;;;;;23.15;11.80;;;25.70;2201.60;;;;;;5003517;23;20042;-86
2023/02/05 13:09:59;;;;;;;44.53;26.23;;;25.70;2201.60;;;;;;4962410;28;20100;-84
2023/02/05 13:12:36;;;;;;;34.78;18.00;;;25.70;2201.60;;;;;;4960479;28;20054;-81
2023/02/05 13:15:26;;;;;;;39.03;26.23;;;25.70;2201.60;;;;;;4959715;29;20024;-81
2023/02/05 13:18:04;;;;;;;20.42;11.07;;;25.70;2201.60;;;;;;4959459;29;20024;-83
2023/02/05 13:30:18;;;;;;;28.50;15.25;;;0.80;2201.60;;;;;;5054947;23;20065;-84
2023/02/05 13:35:15;;;;;;;47.95;25.42;;;0.80;2201.60;;;;;;5088187;23;20062;-82
2023/02/05 13:38:09;;;;;;;329.23;168.52;;;25.70;2201.60;;;;;;5016692;28;20105;-83
2023/02/05 13:41:26;;;;;;;38.28;26.05;;;0.90;2201.60;;;;;;5017441;28;20024;-83
2023/02/05 13:51:11;;;;;;;24.95;15.82;;;25.80;2201.60;;;;;;4998304;28;20042;-81
2023/02/05 13:53:58;;;;;;;30.35;15.75;;;25.80;2201.60;;;;;;4983844;28;20026;-84
2023/02/05 13:56:53;;;;;;;32.33;17.88;;;25.70;2201.60;;;;;;5000485;28;20023;-84
2023/02/05 13:59:50;;;;;;;21.48;14.15;;;25.80;2201.60;;;;;;4986625;28;20031;-83
2023/02/05 14:02:54;;;;;;;21.02;13.52;;;25.80;2201.60;;;;;;4983401;28;20029;-83
2023/02/05 14:05:41;;;;;;;13.88;8.77;;;25.90;2201.60;;;;;;4982715;28;20083;-83
2023/02/05 14:08:31;;;;;;;13.40;9.23;;;25.90;2201.60;;;;;;4999519;28;20018;-84
2023/02/05 14:11:05;;;;;;;24.05;14.38;;;25.80;2201.60;;;;;;5000210;28;20071;-84
2023/02/05 14:13:34;;;;;;;21.40;13.05;;;26.30;2201.60;;;;;;4993375;28;20035;-82
2023/02/05 14:16:22;;;;;;;22.98;13.65;;;25.80;2201.60;;;;;;4983361;28;20062;-84
2023/02/05 14:19:11;;;;;;;41.75;21.67;;;25.70;2201.60;;;;;;4983671;28;20035;-84
2023/02/05 14:22:09;;;;;;;39.35;22.02;;;25.70;2201.60;;;;;;4999501;28;20122;-84
2023/02/05 14:24:44;;;;;;;46.95;25.05;;;25.70;2201.60;;;;;;4999410;28;20031;-84
2023/02/05 14:29:48;;;;;;;45.33;24.65;;;25.60;2201.60;;;;;;4997979;28;19929;-84
2023/02/05 14:32:30;;;;;;;43.05;28.63;;;25.60;2201.60;;;;;;4982801;28;20019;-83
2023/02/05 14:35:22;;;;;;;51.05;29.08;;;0.90;2201.60;;;;;;4981380;28;20111;-83
2023/02/05 14:37:48;;;;;;;49.42;28.30;;;0.90;2201.60;;;;;;4983135;28;20027;-84
2023/02/05 14:40:27;;;;;;;24.73;16.33;;;0.80;2201.60;;;;;;4981977;28;20038;-84
2023/02/05 14:43:01;;;;;;;35.65;22.38;;;0.80;2201.60;;;;;;4994975;28;20049;-83
2023/02/05 14:45:29;;;;;;;43.08;24.92;;;25.90;2201.60;;;;;;4982811;28;20010;-83
2023/02/05 14:48:20;;;;;;;55.28;36.35;;;0.80;2201.60;;;;;;4998082;28;20027;-83
2023/02/05 14:50:59;;;;;;;27.73;17.85;;;0.70;2201.60;;;;;;4981545;28;20102;-83
2023/02/05 14:54:05;;;;;;;46.67;30.30;;;0.60;2201.60;;;;;;4982227;28;20019;-84
2023/02/05 14:57:24;;;;;;;32.88;23.83;;;0.60;2201.60;;;;;;5044584;23;20039;-84
2023/02/05 15:00:34;;;;;;;22.63;14.25;;;0.70;2201.60;;;;;;4976188;28;20039;-83
2023/02/05 15:03:15;;;;;;;23.83;14.68;;;0.60;2201.60;;;;;;4978933;28;20007;-82
2023/02/05 15:12:06;;;;;;;27.05;18.77;;;0.40;2201.60;;;;;;4950678;29;20067;-81
2023/02/05 15:14:40;;;;;;;;;;;0.50;2201.60;;;;;;4934822;29;20032;-80
2023/02/05 15:17:05;;;;;;;;;;;0.40;2201.60;;;;;;4934483;29;19910;-82
2023/02/05 15:19:53;;;;;;;23.77;13.70;;;0.30;2201.60;;;;;;4936217;29;19897;-81
2023/02/05 15:22:39;;;;;;;38.42;22.45;;;0.40;2201.60;;;;;;4930921;29;20031;-80
2023/02/05 15:25:28;;;;;;;20.48;12.00;;;0.50;2201.60;;;;;;4934933;29;20039;-80
2023/02/05 15:28:14;;;;;;;22.13;11.73;;;0.20;2201.60;;;;;;4935112;29;20031;-81
2023/02/05 15:30:52;;;;;;;23.27;12.93;;;0.10;2201.60;;;;;;4936982;29;20040;-81
2023/02/05 15:33:46;;;;;;;29.05;18.35;;;0.10;2201.60;;;;;;4930689;29;20028;-80
2023/02/05 15:36:32;;;;;;;13.82;8.73;;;0.20;2201.60;;;;;;4946509;29;20205;-79
2023/02/05 15:39:34;;;;;;;18.52;9.73;;;0.00;2201.60;;;;;;4916739;29;20059;-80
2023/02/05 15:42:04;;;;;;;12.90;7.00;;;0.00;2201.60;;;;;;4926882;29;20060;-80
2023/02/05 15:44:34;;;;;;;14.45;7.93;;;12.90;2201.60;;;;;;4919378;29;20050;-81
2023/02/05 15:47:09;;;;;;;17.35;10.43;;;12.90;2201.60;;;;;;4934038;29;20023;-81
2023/02/05 15:49:41;;;;;;;20.60;12.77;;;12.90;2201.60;;;;;;4937990;29;20034;-82
2023/02/05 15:52:14;;;;;;;27.60;15.05;;;13.00;2201.60;;;;;;4937712;29;20023;-81
2023/02/05 15:54:44;;;;;;;45.53;24.90;;;13.00;2201.60;;;;;;4945716;29;20027;-81
2023/02/05 15:57:28;;;;;;;54.33;27.05;;;13.00;2201.60;;;;;;4958366;29;20035;-80
2023/02/05 15:59:55;;;;;;;26.40;15.57;;;13.10;2201.60;;;;;;4940936;29;20031;-80
2023/02/05 16:02:26;;;;;;;37.35;19.77;;;13.00;2201.60;;;;;;4933269;29;20317;-81
2023/02/05 16:05:50;;;;;;;41.72;24.55;;;13.10;2201.60;;;;;;4933337;29;20186;-83
2023/02/05 16:08:22;;;;;;;89.05;46.10;;;13.20;2201.60;;;;;;4958898;29;20043;-80
2023/02/05 16:11:04;;;;;;;42.83;24.73;;;13.10;2201.60;;;;;;4913842;29;20051;-79
2023/02/05 16:13:30;;;;;;;18.65;11.65;;;13.10;2201.60;;;;;;4931152;29;20055;-79
2023/02/05 16:16:03;;;;;;;19.85;10.48;;;13.10;2201.60;;;;;;4926334;29;20038;-79
2023/02/05 16:18:39;;;;;;;30.73;16.85;;;13.00;2201.60;;;;;;4932252;29;20024;-79
2023/02/05 16:21:16;;;;;;;55.90;38.63;;;13.00;2201.60;;;;;;4926615;29;20031;-79
2023/02/05 16:23:53;;;;;;;74.45;42.78;;;0.00;2201.60;;;;;;4950408;29;20019;-81
2023/02/05 16:26:35;;;;;;;62.03;40.75;;;0.00;2201.60;;;;;;4917059;29;20040;-80
2023/02/05 16:29:31;;;;;;;43.25;23.88;;;0.10;2201.60;;;;;;4916032;29;20036;-80
2023/02/05 16:32:03;;;;;;;30.13;18.50;;;0.10;2201.60;;;;;;4930481;29;20031;-80
2023/02/05 16:34:39;;;;;;;12.73;8.82;;;0.10;2201.60;;;;;;4935039;29;20028;-82
2023/02/05 16:37:08;;;;;;;20.92;10.77;;;0.10;2201.60;;;;;;4916573;29;20039;-81